Time,TemperatureF,DewpointF,PressureIn,WindDirection,WindDirectionDegrees,WindSpeedMPH,WindSpeedGustMPH,Humidity,HourlyPrecipIn,Conditions,Clouds,dailyrainin,SoftwareType,DateUTC
2013-01-24 00:00:00,3.0,-99.9,-100.00,WNW,301,7.0,15.0,-999,-99.99,,,-99.99,,2013-01-24 06:00:00,
2013-01-24 00:33:00,3.0,-99.9,-100.00,WNW,301,7.0,15.0,-999,-99.99,,,-99.99,,2013-01-24 06:33:00,
2013-01-24 00:43:00,3.0,-99.9,-100.00,WNW,301,7.0,15.0,-999,-99.99,,,-99.99,,2013-01-24 06:43:00,
2013-01-24 00:53:00,3.0,-99.9,-100.00,WNW,301,7.0,15.0,-999,-99.99,,,-99.99,,2013-01-24 06:53:00,
2013-01-24 01:00:00,3.0,-99.9,-100.00,NW,319,10.0,13.0,-999,-99.99,,,-99.99,,2013-01-24 07:00:00,
2013-01-24 01:34:00,3.0,-99.9,-100.00,NW,319,10.0,13.0,-999,-99.99,,,-99.99,,2013-01-24 07:34:00,
2013-01-24 01:43:00,3.0,-99.9,-100.00,NW,319,10.0,13.0,-999,-99.99,,,-99.99,,2013-01-24 07:43:00,
2013-01-24 01:53:00,3.0,-99.9,-100.00,NW,319,10.0,13.0,-999,-99.99,,,-99.99,,2013-01-24 07:53:00,
2013-01-24 02:00:00,3.0,-99.9,-100.00,NNW,331,7.0,10.0,-999,-99.99,,,-99.99,,2013-01-24 08:00:00,
2013-01-24 02:33:00,3.0,-99.9,-100.00,NNW,331,7.0,10.0,-999,-99.99,,,-99.99,,2013-01-24 08:33:00,
2013-01-24 02:43:00,3.0,-99.9,-100.00,NNW,331,7.0,10.0,-999,-99.99,,,-99.99,,2013-01-24 08:43:00,
2013-01-24 02:53:00,3.0,-99.9,-100.00,NNW,331,7.0,10.0,-999,-99.99,,,-99.99,,2013-01-24 08:53:00,
2013-01-24 03:00:00,2.0,-99.9,-100.00,NW,324,9.0,10.0,-999,-99.99,,,-99.99,,2013-01-24 09:00:00,
2013-01-24 03:54:00,2.0,-99.9,-100.00,NW,324,9.0,10.0,-999,-99.99,,,-99.99,,2013-01-24 09:54:00,
2013-01-24 04:00:00,2.0,-99.9,-100.00,NW,326,2.0,8.0,-999,-99.99,,,-99.99,,2013-01-24 10:00:00,
2013-01-24 04:53:00,2.0,-99.9,-100.00,NW,326,2.0,8.0,-999,-99.99,,,-99.99,,2013-01-24 10:53:00,
2013-01-24 05:00:00,2.0,-99.9,-100.00,NNE,18,5.0,9.0,-999,-99.99,,,-99.99,,2013-01-24 11:00:00,
2013-01-24 05:34:00,2.0,-99.9,-100.00,NNE,18,5.0,9.0,-999,-99.99,,,-99.99,,2013-01-24 11:34:00,
2013-01-24 05:43:00,2.0,-99.9,-100.00,NNE,18,5.0,9.0,-999,-99.99,,,-99.99,,2013-01-24 11:43:00,
2013-01-24 05:53:00,2.0,-99.9,-100.00,NNE,18,5.0,9.0,-999,-99.99,,,-99.99,,2013-01-24 11:53:00,
2013-01-24 06:00:00,2.0,-99.9,-100.00,NW,321,2.0,3.0,-999,-99.99,,,-99.99,,2013-01-24 12:00:00,
2013-01-24 06:33:00,2.0,-99.9,-100.00,NW,321,2.0,3.0,-999,-99.99,,,-99.99,,2013-01-24 12:33:00,
2013-01-24 06:43:00,2.0,-99.9,-100.00,NW,321,2.0,3.0,-999,-99.99,,,-99.99,,2013-01-24 12:43:00,
2013-01-24 06:53:00,2.0,-99.9,-100.00,NW,321,2.0,3.0,-999,-99.99,,,-99.99,,2013-01-24 12:53:00,
2013-01-24 08:00:00,3.0,-99.9,-100.00,North,11,5.0,9.0,-999,-99.99,,,-99.99,,2013-01-24 14:00:00,
2013-01-24 08:54:00,3.0,-99.9,-100.00,North,11,5.0,9.0,-999,-99.99,,,-99.99,,2013-01-24 14:54:00,
2013-01-24 09:00:00,4.0,-99.9,-100.00,NE,55,1.0,7.0,-999,-99.99,,,-99.99,,2013-01-24 15:00:00,
2013-01-24 09:53:00,4.0,-99.9,-100.00,NE,55,1.0,7.0,-999,-99.99,,,-99.99,,2013-01-24 15:53:00,
2013-01-24 10:00:00,7.0,-99.9,-100.00,ENE,66,10.0,11.0,-999,-99.99,,,-99.99,,2013-01-24 16:00:00,
2013-01-24 10:34:00,7.0,-99.9,-100.00,ENE,66,10.0,11.0,-999,-99.99,,,-99.99,,2013-01-24 16:34:00,
2013-01-24 10:43:00,7.0,-99.9,-100.00,ENE,66,10.0,11.0,-999,-99.99,,,-99.99,,2013-01-24 16:43:00,
2013-01-24 11:00:00,8.0,-99.9,-100.00,ENE,78,9.0,10.0,-999,-99.99,,,-99.99,,2013-01-24 17:00:00,
2013-01-24 11:53:00,8.0,-99.9,-100.00,ENE,78,9.0,10.0,-999,-99.99,,,-99.99,,2013-01-24 17:53:00,
2013-01-24 12:00:00,10.0,-99.9,-100.00,ENE,75,8.0,12.0,-999,-99.99,,,-99.99,,2013-01-24 18:00:00,
2013-01-24 12:33:00,10.0,-99.9,-100.00,ENE,75,8.0,12.0,-999,-99.99,,,-99.99,,2013-01-24 18:33:00,
2013-01-24 12:43:00,10.0,-99.9,-100.00,ENE,75,8.0,12.0,-999,-99.99,,,-99.99,,2013-01-24 18:43:00,
2013-01-24 12:54:00,10.0,-99.9,-100.00,ENE,75,8.0,12.0,-999,-99.99,,,-99.99,,2013-01-24 18:54:00,
2013-01-24 13:00:00,13.0,-99.9,-100.00,NNE,13,3.0,11.0,-999,-99.99,,,-99.99,,2013-01-24 19:00:00,
2013-01-24 13:33:00,13.0,-99.9,-100.00,NNE,13,3.0,11.0,-999,-99.99,,,-99.99,,2013-01-24 19:33:00,
2013-01-24 13:42:00,13.0,-99.9,-100.00,NNE,13,3.0,11.0,-999,-99.99,,,-99.99,,2013-01-24 19:42:00,
2013-01-24 13:53:00,13.0,-99.9,-100.00,NNE,13,3.0,11.0,-999,-99.99,,,-99.99,,2013-01-24 19:53:00,
2013-01-24 14:00:00,14.0,-99.9,-100.00,East,86,11.0,12.0,-999,-99.99,,,-99.99,,2013-01-24 20:00:00,
2013-01-24 14:33:00,14.0,-99.9,-100.00,East,86,11.0,12.0,-999,-99.99,,,-99.99,,2013-01-24 20:33:00,
2013-01-24 14:43:00,14.0,-99.9,-100.00,East,86,11.0,12.0,-999,-99.99,,,-99.99,,2013-01-24 20:43:00,
2013-01-24 14:53:00,14.0,-99.9,-100.00,East,86,11.0,12.0,-999,-99.99,,,-99.99,,2013-01-24 20:53:00,
2013-01-24 15:00:00,15.0,-99.9,-100.00,East,93,4.0,9.0,-999,-99.99,,,-99.99,,2013-01-24 21:00:00,
2013-01-24 15:33:00,15.0,-99.9,-100.00,East,93,4.0,9.0,-999,-99.99,,,-99.99,,2013-01-24 21:33:00,
2013-01-24 15:44:00,15.0,-99.9,-100.00,East,93,4.0,9.0,-999,-99.99,,,-99.99,,2013-01-24 21:44:00,
2013-01-24 15:53:00,15.0,-99.9,-100.00,East,93,4.0,9.0,-999,-99.99,,,-99.99,,2013-01-24 21:53:00,
2013-01-24 16:00:00,16.0,-99.9,-100.00,ENE,76,13.0,14.0,-999,-99.99,,,-99.99,,2013-01-24 22:00:00,
2013-01-24 16:33:00,16.0,-99.9,-100.00,ENE,76,13.0,14.0,-999,-99.99,,,-99.99,,2013-01-24 22:33:00,
2013-01-24 16:43:00,16.0,-99.9,-100.00,ENE,76,13.0,14.0,-999,-99.99,,,-99.99,,2013-01-24 22:43:00,
2013-01-24 16:53:00,16.0,-99.9,-100.00,ENE,76,13.0,14.0,-999,-99.99,,,-99.99,,2013-01-24 22:53:00,
2013-01-24 17:00:00,17.0,-99.9,-100.00,ENE,70,2.0,12.0,-999,-99.99,,,-99.99,,2013-01-24 23:00:00,
2013-01-24 17:33:00,17.0,-99.9,-100.00,ENE,70,2.0,12.0,-999,-99.99,,,-99.99,,2013-01-24 23:33:00,
2013-01-24 17:43:00,17.0,-99.9,-100.00,ENE,70,2.0,12.0,-999,-99.99,,,-99.99,,2013-01-24 23:43:00,
2013-01-24 17:53:00,17.0,-99.9,-100.00,ENE,70,2.0,12.0,-999,-99.99,,,-99.99,,2013-01-24 23:53:00,
2013-01-24 18:00:00,16.0,-99.9,-100.00,NW,307,0.0,10.0,-999,-99.99,,,-99.99,,2013-01-25 00:00:00,
2013-01-24 18:32:00,16.0,-99.9,-100.00,NW,307,0.0,10.0,-999,-99.99,,,-99.99,,2013-01-25 00:32:00,
2013-01-24 18:42:00,16.0,-99.9,-100.00,NW,307,0.0,10.0,-999,-99.99,,,-99.99,,2013-01-25 00:42:00,
2013-01-24 18:53:00,16.0,-99.9,-100.00,NW,307,0.0,10.0,-999,-99.99,,,-99.99,,2013-01-25 00:53:00,
2013-01-24 19:00:00,17.0,-99.9,-100.00,East,87,7.0,11.0,-999,-99.99,,,-99.99,,2013-01-25 01:00:00,
2013-01-24 19:33:00,17.0,-99.9,-100.00,East,87,7.0,11.0,-999,-99.99,,,-99.99,,2013-01-25 01:33:00,
2013-01-24 19:43:00,17.0,-99.9,-100.00,East,87,7.0,11.0,-999,-99.99,,,-99.99,,2013-01-25 01:43:00,
2013-01-24 19:52:00,17.0,-99.9,-100.00,East,87,7.0,11.0,-999,-99.99,,,-99.99,,2013-01-25 01:52:00,
2013-01-24 20:00:00,18.0,-99.9,-100.00,NNE,28,5.0,8.0,-999,-99.99,,,-99.99,,2013-01-25 02:00:00,
2013-01-24 20:33:00,18.0,-99.9,-100.00,NNE,28,5.0,8.0,-999,-99.99,,,-99.99,,2013-01-25 02:33:00,
2013-01-24 20:43:00,18.0,-99.9,-100.00,NNE,28,5.0,8.0,-999,-99.99,,,-99.99,,2013-01-25 02:43:00,
2013-01-24 20:53:00,18.0,-99.9,-100.00,NNE,28,5.0,8.0,-999,-99.99,,,-99.99,,2013-01-25 02:53:00,
2013-01-24 21:00:00,18.0,-99.9,-100.00,ENE,75,10.0,12.0,-999,-99.99,,,-99.99,,2013-01-25 03:00:00,
2013-01-24 21:33:00,18.0,-99.9,-100.00,ENE,75,10.0,12.0,-999,-99.99,,,-99.99,,2013-01-25 03:33:00,
2013-01-24 21:42:00,18.0,-99.9,-100.00,ENE,75,10.0,12.0,-999,-99.99,,,-99.99,,2013-01-25 03:42:00,
2013-01-24 21:53:00,18.0,-99.9,-100.00,ENE,75,10.0,12.0,-999,-99.99,,,-99.99,,2013-01-25 03:53:00,
2013-01-24 22:00:00,19.0,-99.9,-100.00,ESE,120,10.0,12.0,-999,-99.99,,,-99.99,,2013-01-25 04:00:00,
2013-01-24 22:32:00,19.0,-99.9,-100.00,ESE,120,10.0,12.0,-999,-99.99,,,-99.99,,2013-01-25 04:32:00,
2013-01-24 22:42:00,19.0,-99.9,-100.00,ESE,120,10.0,12.0,-999,-99.99,,,-99.99,,2013-01-25 04:42:00,
2013-01-24 22:52:00,19.0,-99.9,-100.00,ESE,120,10.0,12.0,-999,-99.99,,,-99.99,,2013-01-25 04:52:00,
2013-01-24 23:00:00,19.0,-99.9,-100.00,SE,127,5.0,8.0,-999,-99.99,,,-99.99,,2013-01-25 05:00:00,
2013-01-24 23:32:00,19.0,-99.9,-100.00,SE,127,5.0,8.0,-999,-99.99,,,-99.99,,2013-01-25 05:32:00,
2013-01-24 23:43:00,19.0,-99.9,-100.00,SE,127,5.0,8.0,-999,-99.99,,,-99.99,,2013-01-25 05:43:00,
2013-01-24 23:52:00,19.0,-99.9,-100.00,SE,127,5.0,8.0,-999,-99.99,,,-99.99,,2013-01-25 05:52:00,